createdAt,value
2023-05-10T00:01:04.635Z,9.26
2023-05-10T00:03:33.953Z,9.24
2023-05-10T00:06:02.620Z,9.22
2023-05-10T00:08:31.210Z,9.24
2023-05-10T00:10:59.922Z,9.28
2023-05-10T00:13:28.714Z,9.22
2023-05-10T00:15:57.570Z,9.20
2023-05-10T00:18:26.352Z,9.19
2023-05-10T00:20:55.277Z,9.09
2023-05-10T00:23:24.020Z,9.02
2023-05-10T00:25:54.241Z,9.12
2023-05-10T00:28:22.864Z,9.00
2023-05-10T00:30:51.615Z,9.06
2023-05-10T00:33:20.304Z,8.97
2023-05-10T00:35:49.278Z,8.95
2023-05-10T00:38:17.878Z,8.91
2023-05-10T00:40:46.615Z,8.98
2023-05-10T00:43:15.390Z,8.96
2023-05-10T00:45:44.162Z,8.94
2023-05-10T00:48:12.817Z,8.87
2023-05-10T00:50:41.722Z,8.94
2023-05-10T00:53:11.323Z,8.87
2023-05-10T00:55:40.191Z,8.90
2023-05-10T00:58:09.066Z,8.93
2023-05-10T01:00:39.940Z,8.96
2023-05-10T01:03:08.753Z,8.93
2023-05-10T01:05:37.623Z,8.84
2023-05-10T01:08:07.273Z,8.88
2023-05-10T01:10:36.488Z,8.88
2023-05-10T01:13:05.384Z,8.90
2023-05-10T01:15:34.290Z,8.90
2023-05-10T01:18:04.144Z,8.89
2023-05-10T01:20:35.792Z,8.82
2023-05-10T01:23:16.409Z,8.85
2023-05-10T01:26:00.110Z,8.76
2023-05-10T01:28:47.859Z,8.68
2023-05-10T01:31:45.196Z,8.60
2023-05-10T01:34:23.154Z,8.71
2023-05-10T01:36:54.743Z,8.66
2023-05-10T01:39:51.184Z,8.76
2023-05-10T01:42:25.470Z,8.77
2023-05-10T01:44:59.888Z,8.73
2023-05-10T01:47:51.096Z,8.61
2023-05-10T01:50:29.715Z,8.64
2023-05-10T01:53:01.473Z,8.63
2023-05-10T01:55:32.942Z,8.64
2023-05-10T01:58:07.664Z,8.59
2023-05-10T02:00:37.506Z,8.63
2023-05-10T02:03:09.657Z,8.67
2023-05-10T02:05:40.897Z,8.62
2023-05-10T02:08:11.676Z,8.61
2023-05-10T02:10:42.720Z,8.55
2023-05-10T02:13:13.285Z,8.55
2023-05-10T02:15:43.654Z,8.55
2023-05-10T02:18:14.711Z,8.58
2023-05-10T02:20:46.056Z,8.56
2023-05-10T02:23:16.074Z,8.49
2023-05-10T02:25:46.658Z,8.54
2023-05-10T02:28:16.800Z,8.46
2023-05-10T02:30:46.003Z,8.39
2023-05-10T02:33:15.667Z,8.27
2023-05-10T02:35:44.717Z,7.93
2023-05-10T02:38:13.657Z,8.13
2023-05-10T02:40:44.883Z,8.09
2023-05-10T02:43:16.233Z,8.07
2023-05-10T02:45:47.252Z,8.02
2023-05-10T02:48:16.299Z,7.93
2023-05-10T02:50:47.914Z,7.82
2023-05-10T02:53:20.195Z,7.84
2023-05-10T02:55:51.965Z,7.93
2023-05-10T02:58:23.651Z,7.90
2023-05-10T03:00:53.636Z,7.77
2023-05-10T03:03:23.158Z,7.68
2023-05-10T03:05:57.120Z,7.63
2023-05-10T03:08:26.460Z,7.66
2023-05-10T03:11:13.164Z,7.72
2023-05-10T03:13:53.893Z,7.62
2023-05-10T03:16:26.556Z,7.63
2023-05-10T03:19:02.610Z,7.61
2023-05-10T03:21:31.777Z,7.73
2023-05-10T03:24:06.493Z,7.70
2023-05-10T03:26:37.580Z,7.68
2023-05-10T03:29:15.009Z,7.62
2023-05-10T03:31:44.034Z,7.66
2023-05-10T03:34:12.629Z,7.74
2023-05-10T03:36:41.316Z,7.68
2023-05-10T03:39:10.068Z,7.73
2023-05-10T03:41:41.488Z,7.55
2023-05-10T03:44:16.190Z,7.72
2023-05-10T03:46:45.590Z,7.77
2023-05-10T03:49:20.566Z,7.82
2023-05-10T03:51:50.937Z,7.75
2023-05-10T03:54:19.642Z,7.67
2023-05-10T03:56:58.735Z,7.73
2023-05-10T03:59:29.995Z,7.78
2023-05-10T04:01:58.997Z,7.77
2023-05-10T04:04:27.737Z,7.42
2023-05-10T04:07:04.821Z,7.69
2023-05-10T04:09:33.592Z,7.71
2023-05-10T04:12:05.615Z,7.75
2023-05-10T04:14:38.315Z,7.82
2023-05-10T04:17:11.730Z,7.81
2023-05-10T04:19:40.634Z,7.89
2023-05-10T04:22:12.284Z,7.97
2023-05-10T04:24:40.881Z,8.00
2023-05-10T04:27:09.490Z,7.86
2023-05-10T04:29:38.128Z,7.89
2023-05-10T04:32:07.619Z,7.84
2023-05-10T04:34:36.381Z,7.83
2023-05-10T04:37:06.583Z,7.82
2023-05-10T04:39:36.131Z,7.77
2023-05-10T04:42:06.883Z,7.80
2023-05-10T04:44:44.117Z,7.77
2023-05-10T04:47:14.224Z,7.80
2023-05-10T04:49:42.851Z,7.91
2023-05-10T04:52:12.381Z,8.03
2023-05-10T04:54:41.112Z,8.08
2023-05-10T04:57:09.659Z,8.19
2023-05-10T04:59:38.913Z,8.31
2023-05-10T05:02:10.359Z,8.26
2023-05-10T05:04:38.958Z,8.25
2023-05-10T05:07:07.641Z,8.41
2023-05-10T05:09:38.974Z,8.33
2023-05-10T05:12:07.837Z,8.42
2023-05-10T05:14:36.606Z,8.42
2023-05-10T05:17:05.160Z,8.40
2023-05-10T05:19:36.780Z,8.49
2023-05-10T05:22:05.467Z,8.45
2023-05-10T05:24:39.883Z,8.77
2023-05-10T05:27:08.580Z,8.79
2023-05-10T05:29:37.268Z,8.86
2023-05-10T05:32:06.249Z,8.65
2023-05-10T05:34:36.659Z,8.55
2023-05-10T05:37:05.540Z,8.65
2023-05-10T05:39:34.260Z,8.65
2023-05-10T05:42:03.039Z,8.56
2023-05-10T05:47:11.742Z,8.68
2023-05-10T05:49:41.825Z,8.60
2023-05-10T05:52:10.671Z,8.48
2023-05-10T05:54:39.438Z,8.47
2023-05-10T05:57:08.618Z,8.43
2023-05-10T05:59:41.636Z,8.39
2023-05-10T06:02:24.307Z,8.41
2023-05-10T06:04:54.326Z,8.41
2023-05-10T06:10:21.415Z,8.35
2023-05-10T06:12:46.200Z,8.46
2023-05-10T06:15:19.570Z,8.43
2023-05-10T06:18:02.497Z,7.95
2023-05-10T06:20:37.724Z,8.52
2023-05-10T06:23:10.377Z,8.57
2023-05-10T06:25:46.425Z,8.40
2023-05-10T06:28:15.272Z,8.70
2023-05-10T06:31:08.009Z,8.55
2023-05-10T06:36:42.719Z,8.83
2023-05-10T06:39:13.346Z,8.86
2023-05-10T06:41:41.946Z,8.84
2023-05-10T06:44:14.542Z,8.88
2023-05-10T06:46:44.416Z,9.01
2023-05-10T06:49:16.778Z,8.95
2023-05-10T06:51:46.961Z,8.87
2023-05-10T06:56:56.426Z,9.21
2023-05-10T06:59:26.592Z,9.24
2023-05-10T07:01:58.036Z,9.22
2023-05-10T07:04:28.774Z,9.32
2023-05-10T07:07:10.180Z,9.29
2023-05-10T07:09:42.974Z,9.10
2023-05-10T07:12:13.399Z,9.27
2023-05-10T07:14:42.075Z,9.37
2023-05-10T07:17:11.033Z,9.40
2023-05-10T07:19:39.658Z,9.60
2023-05-10T07:22:10.087Z,9.46
2023-05-10T07:24:42.944Z,9.68
2023-05-10T07:27:20.212Z,9.98
2023-05-10T07:29:49.735Z,9.74
2023-05-10T07:32:18.410Z,10.18
2023-05-10T07:34:48.600Z,10.25
2023-05-10T07:37:19.282Z,10.03
2023-05-10T07:39:47.975Z,9.99
2023-05-10T07:42:16.788Z,10.01
2023-05-10T07:44:49.102Z,10.14
2023-05-10T07:47:22.193Z,10.08
2023-05-10T07:49:51.133Z,9.95
2023-05-10T07:52:24.568Z,10.00
2023-05-10T07:54:56.261Z,10.10
2023-05-10T07:57:25.570Z,10.23
2023-05-10T07:59:55.956Z,10.25
2023-05-10T08:02:25.698Z,10.13
2023-05-10T08:04:56.581Z,10.11
2023-05-10T08:07:27.175Z,10.15
2023-05-10T08:09:55.877Z,10.17
2023-05-10T08:12:24.503Z,10.37
2023-05-10T08:14:53.145Z,10.46
2023-05-10T08:17:22.837Z,10.46
2023-05-10T08:19:54.830Z,10.43
2023-05-10T08:22:26.508Z,10.50
2023-05-10T08:24:55.257Z,10.44
2023-05-10T08:27:23.948Z,10.48
2023-05-10T08:29:54.064Z,10.71
2023-05-10T08:32:23.572Z,10.82
2023-05-10T08:34:52.127Z,11.01
2023-05-10T08:37:25.693Z,11.15
2023-05-10T08:39:54.538Z,11.21
2023-05-10T08:42:33.755Z,11.01
2023-05-10T08:45:17.200Z,10.86
2023-05-10T08:47:51.183Z,11.37
2023-05-10T08:50:22.986Z,11.51
2023-05-10T08:52:56.872Z,11.83
2023-05-10T08:55:30.219Z,11.60
2023-05-10T08:58:16.711Z,11.47
2023-05-10T09:00:47.724Z,11.71
2023-05-10T09:03:16.965Z,12.19
2023-05-10T09:05:49.093Z,12.31
2023-05-10T09:08:19.354Z,12.45
2023-05-10T09:10:51.439Z,12.75
2023-05-10T09:13:22.969Z,12.81
2023-05-10T09:15:54.671Z,12.72
2023-05-10T09:18:26.613Z,12.22
2023-05-10T09:20:53.609Z,12.04
2023-05-10T09:23:22.408Z,11.87
2023-05-10T09:25:52.923Z,11.41
2023-05-10T09:28:21.687Z,11.45
2023-05-10T09:30:53.424Z,11.72
2023-05-10T09:33:27.198Z,11.27
2023-05-10T09:35:57.707Z,11.29
2023-05-10T09:38:26.558Z,11.13
2023-05-10T09:40:55.681Z,11.34
2023-05-10T09:43:26.417Z,11.45
2023-05-10T09:45:55.140Z,11.43
2023-05-10T09:48:25.592Z,11.55
2023-05-10T09:50:59.366Z,11.50
2023-05-10T09:53:31.122Z,11.89
2023-05-10T09:55:59.700Z,12.07
2023-05-10T09:58:28.777Z,12.25
2023-05-10T10:00:57.932Z,12.24
2023-05-10T10:03:29.676Z,12.43
2023-05-10T10:05:57.698Z,12.27
2023-05-10T10:08:27.145Z,12.38
2023-05-10T10:10:55.887Z,11.89
2023-05-10T10:13:35.913Z,12.01
2023-05-10T10:16:08.878Z,12.27
2023-05-10T10:18:47.664Z,12.48
2023-05-10T10:21:23.287Z,12.63
2023-05-10T10:23:57.292Z,12.54
2023-05-10T10:26:34.932Z,12.89
2023-05-10T10:29:13.884Z,13.43
2023-05-10T10:31:46.104Z,13.49
2023-05-10T10:34:32.231Z,13.06
2023-05-10T10:37:04.190Z,13.23
2023-05-10T10:39:38.918Z,13.56
2023-05-10T10:42:12.262Z,13.30
2023-05-10T10:44:42.959Z,13.06
2023-05-10T10:47:27.930Z,13.62
2023-05-10T10:50:13.748Z,13.05
2023-05-10T10:52:44.031Z,12.46
2023-05-10T10:55:15.671Z,12.94
2023-05-10T10:57:57.610Z,12.71
2023-05-10T11:00:34.501Z,12.80
2023-05-10T11:03:09.308Z,12.72
2023-05-10T11:05:53.314Z,12.63
2023-05-10T11:08:38.195Z,12.70
2023-05-10T11:11:16.998Z,13.12
2023-05-10T11:13:51.343Z,13.06
2023-05-10T11:16:25.646Z,12.97
2023-05-10T11:19:09.449Z,13.39
2023-05-10T11:21:55.880Z,13.39
2023-05-10T11:24:30.104Z,13.55
2023-05-10T11:26:59.351Z,13.83
2023-05-10T11:29:28.403Z,13.53
2023-05-10T11:38:07.942Z,14.06
2023-05-10T11:40:40.372Z,13.45
2023-05-10T11:43:14.650Z,13.46
2023-05-10T11:45:55.147Z,13.23
2023-05-10T11:48:34.137Z,13.30
2023-05-10T11:51:08.465Z,13.32
2023-05-10T11:53:38.003Z,13.32
2023-05-10T11:56:12.422Z,12.76
2023-05-10T11:58:51.182Z,13.02
2023-05-10T12:01:26.788Z,13.07
2023-05-10T12:04:02.189Z,13.38
2023-05-10T12:07:13.669Z,13.14
2023-05-10T12:09:39.687Z,13.56
2023-05-10T12:11:58.467Z,13.56
2023-05-10T12:14:36.811Z,13.23
2023-05-10T12:17:07.452Z,12.94
2023-05-10T12:19:45.208Z,12.93
2023-05-10T12:22:14.343Z,13.41
2023-05-10T12:25:01.521Z,13.48
2023-05-10T12:27:36.983Z,13.23
2023-05-10T12:30:01.073Z,12.80
2023-05-10T12:32:50.850Z,12.57
2023-05-10T12:41:52.337Z,13.44
2023-05-10T12:44:31.107Z,12.92
2023-05-10T12:47:01.675Z,13.09
2023-05-10T12:52:38.652Z,13.33
2023-05-10T12:55:10.114Z,13.37
2023-05-10T12:57:39.203Z,13.14
2023-05-10T13:00:09.698Z,12.98
2023-05-10T13:02:40.774Z,13.11
2023-05-10T13:05:13.398Z,12.70
2023-05-10T13:07:53.333Z,12.85
2023-05-10T13:10:33.709Z,12.80
2023-05-10T13:13:04.552Z,12.84
2023-05-10T13:15:36.516Z,12.63
2023-05-10T13:18:11.545Z,12.76
2023-05-10T13:20:37.899Z,12.81
2023-05-10T13:23:11.860Z,12.45
2023-05-10T13:25:40.776Z,12.50
2023-05-10T13:28:09.812Z,12.82
2023-05-10T13:30:45.195Z,12.65
2023-05-10T13:33:14.076Z,12.53
2023-05-10T13:35:44.131Z,12.76
2023-05-10T13:39:23.397Z,12.43
2023-05-10T13:41:04.886Z,12.51
2023-05-10T13:43:37.212Z,12.62
2023-05-10T13:46:03.746Z,12.40
2023-05-10T13:48:38.180Z,12.53
2023-05-10T13:51:24.307Z,12.52
2023-05-10T13:53:53.209Z,12.48
2023-05-10T13:56:42.062Z,12.38
2023-05-10T13:59:10.732Z,12.51
2023-05-10T14:01:39.498Z,12.40
2023-05-10T14:04:09.970Z,12.33
2023-05-10T14:06:39.145Z,12.26
2023-05-10T14:09:07.922Z,12.09
2023-05-10T14:11:36.667Z,12.06
2023-05-10T14:14:07.117Z,11.96
2023-05-10T14:16:35.983Z,12.17
2023-05-10T14:19:06.206Z,12.00
2023-05-10T14:21:35.203Z,11.61
2023-05-10T14:24:04.028Z,12.08
2023-05-10T14:26:32.734Z,11.81
2023-05-10T14:29:10.029Z,11.81
2023-05-10T14:31:36.334Z,11.88
2023-05-10T14:34:04.952Z,11.69
2023-05-10T14:36:35.363Z,11.77
2023-05-10T14:39:04.024Z,11.82
2023-05-10T14:41:32.867Z,11.81
2023-05-10T14:46:50.876Z,11.97
2023-05-10T14:49:28.747Z,11.76
2023-05-10T14:54:54.518Z,11.99
2023-05-10T14:57:26.265Z,11.92
2023-05-10T14:59:55.672Z,12.19
2023-05-10T15:05:19.576Z,12.24
2023-05-10T15:07:48.856Z,12.30
2023-05-10T15:10:20.999Z,12.31
2023-05-10T15:12:49.784Z,12.30
2023-05-10T15:15:24.005Z,12.41
2023-05-10T15:17:53.980Z,12.14
2023-05-10T15:20:22.765Z,11.98
2023-05-10T15:22:51.788Z,12.15
2023-05-10T15:25:20.829Z,12.18
2023-05-10T15:27:50.227Z,11.99
2023-05-10T15:30:18.913Z,11.99
2023-05-10T15:32:49.335Z,12.07
2023-05-10T15:35:20.693Z,11.95
2023-05-10T15:37:52.419Z,11.55
2023-05-10T15:43:29.776Z,11.36
2023-05-10T15:46:20.945Z,11.34
2023-05-10T15:48:54.844Z,10.95
2023-05-10T15:51:30.198Z,11.29
2023-05-10T15:54:07.724Z,11.27
2023-05-10T15:56:35.338Z,11.27
2023-05-10T15:59:07.686Z,11.36
2023-05-10T16:01:36.448Z,11.25
2023-05-10T16:04:05.255Z,11.10
2023-05-10T16:06:34.280Z,11.23
2023-05-10T16:09:03.175Z,11.26
2023-05-10T16:11:38.564Z,11.30
2023-05-10T16:14:31.203Z,11.18
2023-05-10T16:16:59.936Z,11.14
2023-05-10T16:19:29.834Z,11.14
2023-05-10T16:21:58.845Z,11.15
2023-05-10T16:24:28.096Z,11.03
2023-05-10T16:26:58.416Z,11.04
2023-05-10T16:29:27.144Z,11.02
2023-05-10T16:31:55.868Z,11.04
2023-05-10T16:34:25.460Z,11.07
2023-05-10T16:36:54.237Z,11.10
2023-05-10T16:39:22.903Z,11.10
2023-05-10T16:41:51.577Z,10.91
2023-05-10T16:44:21.069Z,10.93
2023-05-10T16:46:51.246Z,10.87
2023-05-10T16:49:20.037Z,10.92
2023-05-10T16:51:54.771Z,11.01
2023-05-10T16:57:14.063Z,11.13
2023-05-10T17:00:29.812Z,11.05
2023-05-10T17:02:51.321Z,11.03
2023-05-10T17:05:24.436Z,10.95
2023-05-10T17:07:56.254Z,10.92
2023-05-10T17:10:25.096Z,10.91
2023-05-10T17:12:53.821Z,10.97
2023-05-10T17:15:22.610Z,10.85
2023-05-10T17:17:51.337Z,10.83
2023-05-10T17:20:20.356Z,10.87
2023-05-10T17:22:52.073Z,10.84
2023-05-10T17:25:20.844Z,10.82
2023-05-10T17:27:49.529Z,10.75
2023-05-10T17:30:19.878Z,10.73
2023-05-10T17:32:48.509Z,10.73
2023-05-10T17:35:17.503Z,10.61
2023-05-10T17:37:48.849Z,10.49
2023-05-10T17:40:18.192Z,10.66
2023-05-10T17:42:53.364Z,10.68
2023-05-10T17:45:19.255Z,10.68
2023-05-10T17:47:48.272Z,10.68
2023-05-10T17:50:18.457Z,10.65
2023-05-10T17:52:47.627Z,10.59
2023-05-10T17:55:16.797Z,10.54
2023-05-10T17:57:51.134Z,10.60
2023-05-10T18:00:21.843Z,10.55
2023-05-10T18:03:47.155Z,10.56
2023-05-10T18:06:14.969Z,10.51
2023-05-10T18:08:48.402Z,10.66
2023-05-10T18:17:35.833Z,10.57
2023-05-10T18:20:06.441Z,10.58
2023-05-10T18:25:27.123Z,10.52
2023-05-10T18:28:00.053Z,10.55
2023-05-10T18:30:35.977Z,10.56
2023-05-10T18:33:24.143Z,10.52
2023-05-10T18:35:55.923Z,10.45
2023-05-10T18:42:30.042Z,10.30
2023-05-10T18:47:46.230Z,10.52
2023-05-10T18:50:23.257Z,10.51
2023-05-10T18:53:24.393Z,10.52
2023-05-10T18:59:29.766Z,10.48
2023-05-10T19:01:58.387Z,10.47
2023-05-10T19:10:47.877Z,10.48
2023-05-10T19:13:24.424Z,10.54
2023-05-10T19:16:05.289Z,10.53
2023-05-10T19:19:06.733Z,10.49
2023-05-10T19:21:50.890Z,10.49
2023-05-10T19:24:31.340Z,10.59
2023-05-10T19:27:16.054Z,10.56
2023-05-10T19:29:57.521Z,10.41
2023-05-10T19:32:30.115Z,10.58
2023-05-10T19:38:22.035Z,10.60
2023-05-10T19:40:40.621Z,10.67
2023-05-10T19:43:14.159Z,10.46
2023-05-10T19:49:13.358Z,10.50
2023-05-10T19:52:30.981Z,10.50
2023-05-10T19:58:03.264Z,10.54
2023-05-10T20:01:16.858Z,10.51
2023-05-10T20:04:03.828Z,10.53
2023-05-10T20:06:36.458Z,10.57
2023-05-10T20:09:11.917Z,10.50
2023-05-10T20:11:52.753Z,10.46
2023-05-10T20:14:29.643Z,10.48
2023-05-10T20:16:59.716Z,10.45
2023-05-10T20:19:39.985Z,10.43
2023-05-10T20:22:16.161Z,10.50
2023-05-10T20:24:55.833Z,10.42
2023-05-10T20:27:31.409Z,10.35
2023-05-10T20:30:05.185Z,10.36
2023-05-10T20:32:41.088Z,10.34
2023-05-10T20:35:10.932Z,10.29
2023-05-10T20:37:55.808Z,10.34
2023-05-10T20:40:20.841Z,10.41
2023-05-10T20:43:26.651Z,10.43
2023-05-10T20:46:10.520Z,10.33
2023-05-10T20:48:43.800Z,10.31
2023-05-10T20:51:18.234Z,10.31
2023-05-10T20:53:54.761Z,10.34
2023-05-10T20:56:25.654Z,10.30
2023-05-10T20:58:54.299Z,10.22
2023-05-10T21:01:23.251Z,10.24
2023-05-10T21:03:52.051Z,10.27
2023-05-10T21:06:20.675Z,10.18
2023-05-10T21:08:49.393Z,10.23
2023-05-10T21:11:18.177Z,10.24
2023-05-10T21:13:49.995Z,10.15
2023-05-10T21:16:20.374Z,10.19
2023-05-10T21:18:50.782Z,10.30
2023-05-10T21:21:19.498Z,10.27
2023-05-10T21:23:50.693Z,10.26
2023-05-10T21:26:21.761Z,10.29
2023-05-10T21:28:50.625Z,10.27
2023-05-10T21:31:19.280Z,10.26
2023-05-10T21:33:48.017Z,10.20
2023-05-10T21:36:16.809Z,10.17
2023-05-10T21:38:45.528Z,10.15
2023-05-10T21:41:14.229Z,10.17
2023-05-10T21:43:42.846Z,10.15
2023-05-10T21:46:13.588Z,10.18
2023-05-10T21:48:45.296Z,10.21
2023-05-10T21:51:14.151Z,10.22
2023-05-10T21:53:43.112Z,10.18
2023-05-10T21:56:11.981Z,10.27
2023-05-10T21:58:40.696Z,10.25
2023-05-10T22:01:09.434Z,10.26
2023-05-10T22:03:38.407Z,10.34
2023-05-10T22:06:09.570Z,10.21
2023-05-10T22:08:38.319Z,10.27
2023-05-10T22:11:07.127Z,10.38
2023-05-10T22:13:35.961Z,10.34
2023-05-10T22:16:04.752Z,10.28
2023-05-10T22:18:34.324Z,10.27
2023-05-10T22:21:03.006Z,10.33
2023-05-10T22:23:31.756Z,10.33
2023-05-10T22:26:06.623Z,10.28
2023-05-10T22:28:35.448Z,10.22
2023-05-10T22:31:04.284Z,10.24
2023-05-10T22:33:32.989Z,10.25
2023-05-10T22:36:01.685Z,10.20
2023-05-10T22:38:30.501Z,10.17
2023-05-10T22:40:59.232Z,10.05
2023-05-10T22:43:27.893Z,10.05
2023-05-10T22:45:56.555Z,10.02
2023-05-10T22:48:25.230Z,9.62
2023-05-10T22:50:53.943Z,9.98
2023-05-10T22:53:23.827Z,10.00
2023-05-10T22:55:53.284Z,10.00
2023-05-10T22:58:22.691Z,10.00
2023-05-10T23:00:51.505Z,9.90
2023-05-10T23:03:20.401Z,9.94
2023-05-10T23:05:49.143Z,9.98
2023-05-10T23:08:18.598Z,9.96
2023-05-10T23:10:47.758Z,9.94
2023-05-10T23:13:16.449Z,9.90
2023-05-10T23:15:44.936Z,9.89
2023-05-10T23:18:13.853Z,9.90
2023-05-10T23:20:45.747Z,9.88
2023-05-10T23:23:14.419Z,9.85
2023-05-10T23:25:44.838Z,9.85
2023-05-10T23:28:13.473Z,9.81
2023-05-10T23:30:42.081Z,9.84
2023-05-10T23:33:14.987Z,9.82
2023-05-10T23:35:44.137Z,9.78
2023-05-10T23:38:13.037Z,9.80
2023-05-10T23:40:43.486Z,9.75
2023-05-10T23:43:13.870Z,9.77
2023-05-10T23:45:42.756Z,9.76
2023-05-10T23:48:11.383Z,9.70
2023-05-10T23:50:44.120Z,9.66
2023-05-10T23:53:12.888Z,9.67
2023-05-10T23:58:39.770Z,9.65
